sensor_id;sensor_type;location;lat;lon;timestamp;temperature;humidity
13470;DHT22;6807;48.682;9.032;2023-11-21T00:01:04;7.00;100.00
13470;DHT22;6807;48.682;9.032;2023-11-21T00:03:34;7.10;100.00
13470;DHT22;6807;48.682;9.032;2023-11-21T00:06:01;7.20;100.00
13470;DHT22;6807;48.682;9.032;2023-11-21T00:08:28;7.20;100.00
13470;DHT22;6807;48.682;9.032;2023-11-21T00:10:55;7.20;100.00
13470;DHT22;6807;48.682;9.032;2023-11-21T00:13:22;7.20;100.00
13470;DHT22;6807;48.682;9.032;2023-11-21T00:15:48;7.30;100.00
13470;DHT22;6807;48.682;9.032;2023-11-21T00:18:17;7.30;100.00
13470;DHT22;6807;48.682;9.032;2023-11-21T00:20:44;7.30;100.00
13470;DHT22;6807;48.682;9.032;2023-11-21T00:23:11;7.30;100.00
13470;DHT22;6807;48.682;9.032;2023-11-21T00:25:37;7.30;100.00
13470;DHT22;6807;48.682;9.032;2023-11-21T00:28:04;7.30;100.00
13470;DHT22;6807;48.682;9.032;2023-11-21T00:30:31;7.40;100.00
13470;DHT22;6807;48.682;9.032;2023-11-21T00:32:58;7.40;100.00
13470;DHT22;6807;48.682;9.032;2023-11-21T00:35:26;7.40;100.00
13470;DHT22;6807;48.682;9.032;2023-11-21T00:37:53;7.40;100.00
13470;DHT22;6807;48.682;9.032;2023-11-21T00:40:20;7.40;100.00
13470;DHT22;6807;48.682;9.032;2023-11-21T00:42:47;7.40;100.00
13470;DHT22;6807;48.682;9.032;2023-11-21T00:45:14;7.40;100.00
13470;DHT22;6807;48.682;9.032;2023-11-21T00:47:41;7.40;100.00
13470;DHT22;6807;48.682;9.032;2023-11-21T00:50:09;7.40;100.00
13470;DHT22;6807;48.682;9.032;2023-11-21T00:52:37;7.40;100.00
13470;DHT22;6807;48.682;9.032;2023-11-21T00:55:05;7.30;100.00
13470;DHT22;6807;48.682;9.032;2023-11-21T00:57:33;7.30;100.00
13470;DHT22;6807;48.682;9.032;2023-11-21T01:00:00;7.30;100.00
13470;DHT22;6807;48.682;9.032;2023-11-21T01:02:27;7.30;100.00
13470;DHT22;6807;48.682;9.032;2023-11-21T01:04:54;7.40;100.00
13470;DHT22;6807;48.682;9.032;2023-11-21T01:07:21;7.40;100.00
13470;DHT22;6807;48.682;9.032;2023-11-21T01:09:49;7.40;100.00
13470;DHT22;6807;48.682;9.032;2023-11-21T01:12:16;7.40;100.00
13470;DHT22;6807;48.682;9.032;2023-11-21T01:14:44;7.40;100.00
13470;DHT22;6807;48.682;9.032;2023-11-21T01:17:11;7.40;100.00
13470;DHT22;6807;48.682;9.032;2023-11-21T01:19:38;7.40;100.00
13470;DHT22;6807;48.682;9.032;2023-11-21T01:22:04;7.40;100.00
13470;DHT22;6807;48.682;9.032;2023-11-21T01:24:31;7.40;100.00
13470;DHT22;6807;48.682;9.032;2023-11-21T01:26:59;7.40;100.00
13470;DHT22;6807;48.682;9.032;2023-11-21T01:29:26;7.30;100.00
13470;DHT22;6807;48.682;9.032;2023-11-21T01:31:53;7.40;100.00
13470;DHT22;6807;48.682;9.032;2023-11-21T01:34:20;7.40;100.00
13470;DHT22;6807;48.682;9.032;2023-11-21T01:36:47;7.40;100.00
13470;DHT22;6807;48.682;9.032;2023-11-21T01:39:14;7.40;100.00
13470;DHT22;6807;48.682;9.032;2023-11-21T01:41:48;7.40;100.00
13470;DHT22;6807;48.682;9.032;2023-11-21T01:44:17;7.40;100.00
13470;DHT22;6807;48.682;9.032;2023-11-21T01:46:44;7.40;99.40
13470;DHT22;6807;48.682;9.032;2023-11-21T01:49:12;7.40;99.30
13470;DHT22;6807;48.682;9.032;2023-11-21T01:51:40;7.40;99.40
13470;DHT22;6807;48.682;9.032;2023-11-21T01:54:07;7.30;99.40
13470;DHT22;6807;48.682;9.032;2023-11-21T01:56:34;7.30;99.50
13470;DHT22;6807;48.682;9.032;2023-11-21T01:59:02;7.30;99.70
13470;DHT22;6807;48.682;9.032;2023-11-21T02:01:30;7.20;99.80
13470;DHT22;6807;48.682;9.032;2023-11-21T02:03:57;7.30;99.60
13470;DHT22;6807;48.682;9.032;2023-11-21T02:06:24;7.20;100.00
13470;DHT22;6807;48.682;9.032;2023-11-21T02:08:51;7.30;99.90
13470;DHT22;6807;48.682;9.032;2023-11-21T02:11:18;7.20;100.00
13470;DHT22;6807;48.682;9.032;2023-11-21T02:13:45;7.20;100.00
13470;DHT22;6807;48.682;9.032;2023-11-21T02:16:12;7.20;100.00
13470;DHT22;6807;48.682;9.032;2023-11-21T02:18:41;7.20;100.00
13470;DHT22;6807;48.682;9.032;2023-11-21T02:21:08;7.20;100.00
13470;DHT22;6807;48.682;9.032;2023-11-21T02:23:37;7.20;99.90
13470;DHT22;6807;48.682;9.032;2023-11-21T02:26:07;7.20;100.00
13470;DHT22;6807;48.682;9.032;2023-11-21T02:28:35;7.20;100.00
13470;DHT22;6807;48.682;9.032;2023-11-21T02:31:02;7.10;100.00
13470;DHT22;6807;48.682;9.032;2023-11-21T02:33:30;7.10;100.00
13470;DHT22;6807;48.682;9.032;2023-11-21T02:35:59;7.10;100.00
13470;DHT22;6807;48.682;9.032;2023-11-21T02:38:26;7.10;100.00
13470;DHT22;6807;48.682;9.032;2023-11-21T02:40:55;7.10;100.00
13470;DHT22;6807;48.682;9.032;2023-11-21T02:43:22;7.10;100.00
13470;DHT22;6807;48.682;9.032;2023-11-21T02:45:49;7.10;100.00
13470;DHT22;6807;48.682;9.032;2023-11-21T02:48:16;7.10;99.90
13470;DHT22;6807;48.682;9.032;2023-11-21T02:50:42;7.10;100.00
13470;DHT22;6807;48.682;9.032;2023-11-21T02:53:09;7.20;100.00
13470;DHT22;6807;48.682;9.032;2023-11-21T02:55:36;7.10;99.80
13470;DHT22;6807;48.682;9.032;2023-11-21T02:58:04;7.10;99.90
13470;DHT22;6807;48.682;9.032;2023-11-21T03:00:31;7.10;100.00
13470;DHT22;6807;48.682;9.032;2023-11-21T03:02:58;7.10;99.90
13470;DHT22;6807;48.682;9.032;2023-11-21T03:05:26;7.10;99.90
13470;DHT22;6807;48.682;9.032;2023-11-21T03:07:54;7.00;100.00
13470;DHT22;6807;48.682;9.032;2023-11-21T03:10:21;7.00;100.00
13470;DHT22;6807;48.682;9.032;2023-11-21T03:12:48;7.00;99.90
13470;DHT22;6807;48.682;9.032;2023-11-21T03:15:16;7.00;99.80
13470;DHT22;6807;48.682;9.032;2023-11-21T03:17:43;7.00;99.70
13470;DHT22;6807;48.682;9.032;2023-11-21T03:20:10;7.00;99.80
13470;DHT22;6807;48.682;9.032;2023-11-21T03:22:38;7.00;99.80
13470;DHT22;6807;48.682;9.032;2023-11-21T03:25:05;7.00;100.00
13470;DHT22;6807;48.682;9.032;2023-11-21T03:27:36;6.90;100.00
13470;DHT22;6807;48.682;9.032;2023-11-21T03:30:03;6.90;99.90
13470;DHT22;6807;48.682;9.032;2023-11-21T03:32:33;7.00;99.60
13470;DHT22;6807;48.682;9.032;2023-11-21T03:35:01;7.00;99.50
13470;DHT22;6807;48.682;9.032;2023-11-21T03:37:29;7.00;99.40
13470;DHT22;6807;48.682;9.032;2023-11-21T03:39:55;6.90;99.40
13470;DHT22;6807;48.682;9.032;2023-11-21T03:42:22;6.90;99.80
13470;DHT22;6807;48.682;9.032;2023-11-21T03:44:51;6.90;99.90
13470;DHT22;6807;48.682;9.032;2023-11-21T03:47:17;7.00;99.70
13470;DHT22;6807;48.682;9.032;2023-11-21T03:49:46;7.00;99.50
13470;DHT22;6807;48.682;9.032;2023-11-21T03:52:13;7.00;99.20
13470;DHT22;6807;48.682;9.032;2023-11-21T03:54:39;7.00;99.30
13470;DHT22;6807;48.682;9.032;2023-11-21T03:57:06;7.00;99.40
13470;DHT22;6807;48.682;9.032;2023-11-21T03:59:33;7.00;99.50
13470;DHT22;6807;48.682;9.032;2023-11-21T04:02:00;7.00;99.30
13470;DHT22;6807;48.682;9.032;2023-11-21T04:04:26;7.10;99.50
13470;DHT22;6807;48.682;9.032;2023-11-21T04:06:54;7.10;99.00
13470;DHT22;6807;48.682;9.032;2023-11-21T04:09:21;7.00;99.30
13470;DHT22;6807;48.682;9.032;2023-11-21T04:11:50;7.10;99.10
13470;DHT22;6807;48.682;9.032;2023-11-21T04:14:17;7.10;99.40
13470;DHT22;6807;48.682;9.032;2023-11-21T04:16:44;7.10;99.70
13470;DHT22;6807;48.682;9.032;2023-11-21T04:19:10;7.10;99.50
13470;DHT22;6807;48.682;9.032;2023-11-21T04:21:40;7.10;99.60
13470;DHT22;6807;48.682;9.032;2023-11-21T04:24:08;7.10;99.50
13470;DHT22;6807;48.682;9.032;2023-11-21T04:26:36;7.10;99.80
13470;DHT22;6807;48.682;9.032;2023-11-21T04:29:03;7.10;99.90
13470;DHT22;6807;48.682;9.032;2023-11-21T04:31:30;7.10;100.00
13470;DHT22;6807;48.682;9.032;2023-11-21T04:33:57;7.10;100.00
13470;DHT22;6807;48.682;9.032;2023-11-21T04:36:24;7.10;100.00
13470;DHT22;6807;48.682;9.032;2023-11-21T04:38:51;7.10;100.00
13470;DHT22;6807;48.682;9.032;2023-11-21T04:41:19;7.10;100.00
13470;DHT22;6807;48.682;9.032;2023-11-21T04:43:45;7.10;100.00
13470;DHT22;6807;48.682;9.032;2023-11-21T04:46:12;7.10;100.00
13470;DHT22;6807;48.682;9.032;2023-11-21T04:48:39;7.10;100.00
13470;DHT22;6807;48.682;9.032;2023-11-21T04:51:06;7.10;100.00
13470;DHT22;6807;48.682;9.032;2023-11-21T04:53:33;7.10;100.00
13470;DHT22;6807;48.682;9.032;2023-11-21T04:56:00;7.10;100.00
13470;DHT22;6807;48.682;9.032;2023-11-21T04:58:28;7.20;100.00
13470;DHT22;6807;48.682;9.032;2023-11-21T05:00:56;7.10;99.70
13470;DHT22;6807;48.682;9.032;2023-11-21T05:03:22;7.10;99.70
13470;DHT22;6807;48.682;9.032;2023-11-21T05:05:49;7.10;100.00
13470;DHT22;6807;48.682;9.032;2023-11-21T05:08:16;7.10;100.00
13470;DHT22;6807;48.682;9.032;2023-11-21T05:10:44;7.10;100.00
13470;DHT22;6807;48.682;9.032;2023-11-21T05:13:11;7.10;100.00
13470;DHT22;6807;48.682;9.032;2023-11-21T05:15:39;7.10;100.00
13470;DHT22;6807;48.682;9.032;2023-11-21T05:18:06;7.10;100.00
13470;DHT22;6807;48.682;9.032;2023-11-21T05:20:33;7.10;100.00
13470;DHT22;6807;48.682;9.032;2023-11-21T05:23:00;7.10;100.00
13470;DHT22;6807;48.682;9.032;2023-11-21T05:25:27;7.10;100.00
13470;DHT22;6807;48.682;9.032;2023-11-21T05:27:54;7.00;100.00
13470;DHT22;6807;48.682;9.032;2023-11-21T05:30:21;7.00;100.00
13470;DHT22;6807;48.682;9.032;2023-11-21T05:32:50;7.00;100.00
13470;DHT22;6807;48.682;9.032;2023-11-21T05:35:16;6.90;100.00
13470;DHT22;6807;48.682;9.032;2023-11-21T05:37:44;6.90;100.00
13470;DHT22;6807;48.682;9.032;2023-11-21T05:40:11;6.90;100.00
13470;DHT22;6807;48.682;9.032;2023-11-21T05:42:39;6.90;100.00
